createdAt,value
2022-10-11T00:02:59.051Z,97282.75
2022-10-11T00:08:19.993Z,97294.72
2022-10-11T00:13:40.406Z,97288.38
2022-10-11T00:19:01.115Z,97291.81
2022-10-11T00:24:21.951Z,97290.31
2022-10-11T00:29:42.585Z,97296.63
2022-10-11T00:35:06.381Z,97293.47
2022-10-11T00:40:27.038Z,97300.47
2022-10-11T00:45:56.686Z,97299.66
2022-10-11T00:51:34.151Z,97301.59
2022-10-11T00:57:00.978Z,97297.06
2022-10-11T01:02:23.335Z,97307.09
2022-10-11T01:07:46.972Z,97303.78
2022-10-11T01:13:33.939Z,97305.16
2022-10-11T01:19:04.926Z,97311.22
2022-10-11T01:24:44.647Z,97321.00
2022-10-11T01:30:22.249Z,97317.94
2022-10-11T01:36:06.994Z,97328.78
2022-10-11T01:41:35.482Z,97321.88
2022-10-11T01:46:56.219Z,97326.16
2022-10-11T01:52:16.841Z,97330.56
2022-10-11T01:58:13.404Z,97331.72
2022-10-11T02:03:45.836Z,97340.22
2022-10-11T02:09:16.566Z,97343.38
2022-10-11T02:14:43.488Z,97347.91
2022-10-11T02:20:11.321Z,97358.75
2022-10-11T02:25:35.127Z,97356.19
2022-10-11T02:30:58.476Z,97366.13
2022-10-11T02:36:33.050Z,97368.88
2022-10-11T02:41:59.762Z,97368.19
2022-10-11T02:47:21.093Z,97376.84
2022-10-11T02:52:41.726Z,97372.00
2022-10-11T02:58:03.060Z,97382.31
2022-10-11T03:03:23.635Z,97380.94
2022-10-11T03:08:44.376Z,97390.84
2022-10-11T03:14:04.992Z,97385.66
2022-10-11T03:19:25.759Z,97387.31
2022-10-11T03:24:46.504Z,97405.53
2022-10-11T03:30:09.026Z,97417.81
2022-10-11T03:35:29.906Z,97418.41
2022-10-11T03:40:50.542Z,97431.03
2022-10-11T03:46:11.149Z,97433.81
2022-10-11T03:51:31.905Z,97438.72
2022-10-11T03:56:52.578Z,97439.13
2022-10-11T04:02:13.257Z,97439.00
2022-10-11T04:07:33.963Z,97441.66
2022-10-11T04:12:54.764Z,97442.66
2022-10-11T04:18:15.596Z,97449.78
2022-10-11T04:23:36.017Z,97452.31
2022-10-11T04:28:56.940Z,97458.09
2022-10-11T04:34:18.111Z,97456.25
2022-10-11T04:39:39.013Z,97454.16
2022-10-11T04:44:59.565Z,97463.47
2022-10-11T04:50:20.172Z,97467.34
2022-10-11T04:55:40.807Z,97474.47
2022-10-11T05:01:01.771Z,97483.75
2022-10-11T05:06:22.528Z,97495.75
2022-10-11T05:11:43.335Z,97496.16
2022-10-11T05:17:04.020Z,97499.50
2022-10-11T05:22:24.692Z,97515.53
2022-10-11T05:27:45.513Z,97513.25
2022-10-11T05:33:06.135Z,97522.50
2022-10-11T05:38:27.440Z,97527.97
2022-10-11T05:43:47.917Z,97536.75
2022-10-11T05:49:08.564Z,97541.34
2022-10-11T05:54:31.061Z,97539.25
2022-10-11T05:59:52.323Z,97553.47
2022-10-11T06:05:13.878Z,97552.13
2022-10-11T06:10:35.519Z,97565.88
2022-10-11T06:15:56.098Z,97583.38
2022-10-11T06:21:16.660Z,97579.34
2022-10-11T06:26:37.409Z,97582.50
2022-10-11T06:31:58.611Z,97598.41
2022-10-11T06:37:19.314Z,97595.09
2022-10-11T06:42:40.181Z,97605.41
2022-10-11T06:48:01.919Z,97597.94
2022-10-11T06:53:22.750Z,97609.59
2022-10-11T06:58:43.690Z,97612.44
2022-10-11T07:04:05.007Z,97618.72
2022-10-11T07:09:26.001Z,97633.19
2022-10-11T07:14:46.795Z,97638.78
2022-10-11T07:20:07.809Z,97644.84
2022-10-11T07:25:28.581Z,97649.19
2022-10-11T07:30:49.626Z,97654.03
2022-10-11T07:36:12.083Z,97654.09
2022-10-11T07:41:33.134Z,97663.84
2022-10-11T07:46:54.228Z,97658.72
2022-10-11T07:52:15.058Z,97659.19
2022-10-11T07:57:35.982Z,97672.38
2022-10-11T08:02:56.610Z,97670.03
2022-10-11T08:08:17.179Z,97669.19
2022-10-11T08:13:37.868Z,97678.31
2022-10-11T08:18:58.503Z,97687.63
2022-10-11T08:24:20.983Z,97685.25
2022-10-11T08:29:41.973Z,97679.78
2022-10-11T08:35:02.871Z,97688.09
2022-10-11T08:40:24.834Z,97697.44
2022-10-11T08:45:55.923Z,97704.84
2022-10-11T08:51:34.053Z,97697.06
2022-10-11T08:56:54.879Z,97705.47
2022-10-11T09:02:55.761Z,97711.31
2022-10-11T09:08:29.026Z,97717.34
2022-10-11T09:13:56.427Z,97707.22
2022-10-11T09:19:38.708Z,97711.88
2022-10-11T09:25:18.491Z,97708.16
2022-10-11T09:30:47.187Z,97718.88
2022-10-11T09:36:26.733Z,97716.47
2022-10-11T09:41:53.750Z,97719.19
2022-10-11T09:47:33.137Z,97733.44
2022-10-11T09:52:59.838Z,97733.59
2022-10-11T09:58:26.425Z,97734.00
2022-10-11T10:03:47.569Z,97737.16
2022-10-11T10:09:28.787Z,97736.69
2022-10-11T10:15:19.600Z,97740.50
2022-10-11T10:20:40.462Z,97743.97
2022-10-11T10:26:13.361Z,97742.38
2022-10-11T10:37:43.518Z,97743.25
2022-10-11T10:43:04.573Z,97738.09
2022-10-11T10:49:02.015Z,97736.75
2022-10-11T10:54:42.180Z,97743.06
2022-10-11T11:00:16.392Z,97738.97
2022-10-11T11:05:43.848Z,97738.78
2022-10-11T11:11:23.205Z,97739.13
2022-10-11T11:17:03.048Z,97740.53
2022-10-11T11:22:42.484Z,97740.69
2022-10-11T11:28:31.356Z,97740.53
2022-10-11T11:34:22.204Z,97745.78
2022-10-11T11:39:48.598Z,97743.41
2022-10-11T11:45:21.414Z,97740.44
2022-10-11T11:50:46.466Z,97740.91
2022-10-11T11:56:27.627Z,97737.50
2022-10-11T12:02:25.862Z,97733.13
2022-10-11T12:08:30.337Z,97726.78
2022-10-11T12:13:54.835Z,97719.47
2022-10-11T12:19:15.744Z,97713.97
2022-10-11T12:25:18.499Z,97715.47
2022-10-11T12:30:44.384Z,97715.88
2022-10-11T12:36:32.761Z,97715.97
2022-10-11T12:42:07.771Z,97723.53
2022-10-11T12:47:49.188Z,97717.22
2022-10-11T12:53:28.732Z,97728.25
2022-10-11T12:58:50.010Z,97720.03
2022-10-11T13:04:11.838Z,97725.44
2022-10-11T13:09:39.618Z,97720.19
2022-10-11T13:15:07.556Z,97719.94
2022-10-11T13:20:37.501Z,97721.03
2022-10-11T13:26:02.329Z,97719.50
2022-10-11T13:31:24.950Z,97714.69
2022-10-11T13:36:45.771Z,97723.66
2022-10-11T13:42:13.856Z,97711.94
2022-10-11T13:47:35.350Z,97720.19
2022-10-11T13:53:00.871Z,97716.19
2022-10-11T13:58:36.283Z,97715.53
2022-10-11T14:04:04.062Z,97713.94
2022-10-11T14:09:27.704Z,97714.63
2022-10-11T14:14:49.198Z,97714.28
2022-10-11T14:20:17.645Z,97704.06
2022-10-11T14:25:38.254Z,97702.94
2022-10-11T14:30:59.290Z,97702.94
2022-10-11T14:36:22.531Z,97704.44
2022-10-11T14:41:46.537Z,97701.25
2022-10-11T14:47:08.765Z,97708.00
2022-10-11T14:52:29.695Z,97708.88
2022-10-11T14:57:51.036Z,97711.22
2022-10-11T15:03:11.890Z,97716.16
2022-10-11T15:08:32.678Z,97711.31
2022-10-11T15:13:53.538Z,97712.72
2022-10-11T15:19:17.027Z,97707.06
2022-10-11T15:24:38.099Z,97706.22
2022-10-11T15:29:58.657Z,97710.19
2022-10-11T15:35:20.916Z,97709.78
2022-10-11T15:40:41.605Z,97714.78
2022-10-11T15:46:03.197Z,97715.97
2022-10-11T15:51:24.538Z,97718.75
2022-10-11T15:56:45.138Z,97726.06
2022-10-11T16:02:06.055Z,97725.63
2022-10-11T16:07:26.931Z,97725.34
2022-10-11T16:12:48.245Z,97726.91
2022-10-11T16:18:11.704Z,97733.47
2022-10-11T16:23:32.537Z,97745.28
2022-10-11T16:28:53.205Z,97743.72
2022-10-11T16:34:13.722Z,97747.19
2022-10-11T16:39:34.876Z,97739.06
2022-10-11T16:44:55.447Z,97746.13
2022-10-11T16:50:16.161Z,97742.09
2022-10-11T16:55:39.577Z,97742.19
2022-10-11T17:01:00.578Z,97738.84
2022-10-11T17:06:21.935Z,97740.16
2022-10-11T17:11:43.970Z,97748.44
2022-10-11T17:17:05.722Z,97739.84
2022-10-11T17:22:26.787Z,97738.72
2022-10-11T17:27:47.751Z,97742.88
2022-10-11T17:33:09.169Z,97745.31
2022-10-11T17:38:29.860Z,97743.94
2022-10-11T17:43:51.503Z,97734.91
2022-10-11T17:49:12.799Z,97740.13
2022-10-11T17:54:33.796Z,97740.84
2022-10-11T17:59:54.389Z,97742.75
2022-10-11T18:05:16.783Z,97746.81
2022-10-11T18:10:38.014Z,97747.97
2022-10-11T18:15:58.645Z,97750.00
2022-10-11T18:21:19.661Z,97743.25
2022-10-11T18:26:41.390Z,97737.81
2022-10-11T18:32:02.230Z,97729.81
2022-10-11T18:37:22.856Z,97723.78
2022-10-11T18:42:43.634Z,97735.66
2022-10-11T18:48:04.741Z,97744.16
2022-10-11T18:53:25.653Z,97746.75
2022-10-11T18:58:47.298Z,97744.84
2022-10-11T19:04:09.877Z,97748.66
2022-10-11T19:09:31.002Z,97743.56
2022-10-11T19:14:52.149Z,97748.31
2022-10-11T19:20:12.866Z,97745.34
2022-10-11T19:25:36.488Z,97744.66
2022-10-11T19:31:05.778Z,97744.44
2022-10-11T19:36:27.256Z,97741.97
2022-10-11T19:41:49.146Z,97738.53
2022-10-11T19:47:10.155Z,97751.84
2022-10-11T19:52:32.806Z,97749.50
2022-10-11T19:57:53.729Z,97753.56
2022-10-11T20:03:14.570Z,97754.09
2022-10-11T20:08:36.324Z,97747.22
2022-10-11T20:13:57.396Z,97752.75
2022-10-11T20:19:18.883Z,97743.31
2022-10-11T20:24:39.482Z,97746.50
2022-10-11T20:30:00.028Z,97738.53
2022-10-11T20:35:20.782Z,97731.31
2022-10-11T20:40:41.593Z,97738.34
2022-10-11T20:46:07.311Z,97747.84
2022-10-11T20:51:30.253Z,97757.44
2022-10-11T20:56:50.903Z,97755.59
2022-10-11T21:02:14.351Z,97756.19
2022-10-11T21:07:39.069Z,97758.09
2022-10-11T21:12:59.897Z,97756.19
2022-10-11T21:18:20.610Z,97743.53
2022-10-11T21:23:41.671Z,97746.28
2022-10-11T21:29:04.083Z,97740.03
2022-10-11T21:34:25.160Z,97743.94
2022-10-11T21:39:45.760Z,97747.88
2022-10-11T21:45:06.642Z,97753.34
2022-10-11T21:50:27.447Z,97747.88
2022-10-11T21:55:48.227Z,97751.53
2022-10-11T22:01:10.403Z,97745.97
2022-10-11T22:06:31.484Z,97749.31
2022-10-11T22:11:52.430Z,97749.41
2022-10-11T22:17:12.826Z,97746.13
2022-10-11T22:22:33.707Z,97747.53
2022-10-11T22:27:54.566Z,97738.16
2022-10-11T22:33:17.181Z,97746.69
2022-10-11T22:38:39.988Z,97748.38
2022-10-11T22:44:01.447Z,97744.69
2022-10-11T22:49:22.071Z,97752.50
2022-10-11T22:54:43.139Z,97747.41
2022-10-11T23:00:04.421Z,97744.19
2022-10-11T23:05:24.971Z,97744.66
2022-10-11T23:10:45.792Z,97748.59
2022-10-11T23:16:09.096Z,97748.97
2022-10-11T23:21:29.934Z,97754.31
2022-10-11T23:26:50.560Z,97751.69
2022-10-11T23:32:11.673Z,97752.16
2022-10-11T23:37:32.421Z,97751.69
2022-10-11T23:42:53.026Z,97752.84
2022-10-11T23:48:13.739Z,97764.25
2022-10-11T23:53:35.566Z,97756.66
2022-10-11T23:58:56.521Z,97754.50
